sensor_id;sensor_type;location;lat;lon;timestamp;temperature;humidity
16511;DHT22;8368;48.772;8.754;2023-04-16T00:00:06;6.00;99.90
16511;DHT22;8368;48.772;8.754;2023-04-16T00:02:32;6.00;99.90
16511;DHT22;8368;48.772;8.754;2023-04-16T00:04:58;6.00;99.90
16511;DHT22;8368;48.772;8.754;2023-04-16T00:07:23;6.00;99.90
16511;DHT22;8368;48.772;8.754;2023-04-16T00:09:49;6.00;99.90
16511;DHT22;8368;48.772;8.754;2023-04-16T00:12:15;6.00;99.90
16511;DHT22;8368;48.772;8.754;2023-04-16T00:14:41;6.10;99.90
16511;DHT22;8368;48.772;8.754;2023-04-16T00:17:08;6.10;99.90
16511;DHT22;8368;48.772;8.754;2023-04-16T00:19:34;6.00;99.90
16511;DHT22;8368;48.772;8.754;2023-04-16T00:22:00;6.00;99.90
16511;DHT22;8368;48.772;8.754;2023-04-16T00:24:25;6.10;99.90
16511;DHT22;8368;48.772;8.754;2023-04-16T00:26:51;6.10;99.90
16511;DHT22;8368;48.772;8.754;2023-04-16T00:29:16;6.00;99.90
16511;DHT22;8368;48.772;8.754;2023-04-16T00:31:42;6.10;99.90
16511;DHT22;8368;48.772;8.754;2023-04-16T00:34:07;6.10;99.90
16511;DHT22;8368;48.772;8.754;2023-04-16T00:36:33;6.10;99.90
16511;DHT22;8368;48.772;8.754;2023-04-16T00:38:58;6.10;99.90
16511;DHT22;8368;48.772;8.754;2023-04-16T00:41:24;6.10;99.90
16511;DHT22;8368;48.772;8.754;2023-04-16T00:43:50;6.10;99.90
16511;DHT22;8368;48.772;8.754;2023-04-16T00:46:20;6.00;99.90
16511;DHT22;8368;48.772;8.754;2023-04-16T00:48:46;6.00;99.90
16511;DHT22;8368;48.772;8.754;2023-04-16T00:51:13;6.10;99.90
16511;DHT22;8368;48.772;8.754;2023-04-16T00:53:39;6.00;99.90
16511;DHT22;8368;48.772;8.754;2023-04-16T00:56:06;6.10;99.90
16511;DHT22;8368;48.772;8.754;2023-04-16T00:58:33;6.00;99.90
16511;DHT22;8368;48.772;8.754;2023-04-16T01:00:59;6.10;99.90
16511;DHT22;8368;48.772;8.754;2023-04-16T01:03:36;6.10;99.90
16511;DHT22;8368;48.772;8.754;2023-04-16T01:06:02;6.10;99.90
16511;DHT22;8368;48.772;8.754;2023-04-16T01:08:28;6.00;99.90
16511;DHT22;8368;48.772;8.754;2023-04-16T01:10:53;6.00;99.90
16511;DHT22;8368;48.772;8.754;2023-04-16T01:13:19;6.00;99.90
16511;DHT22;8368;48.772;8.754;2023-04-16T01:15:45;6.10;99.90
16511;DHT22;8368;48.772;8.754;2023-04-16T01:18:19;6.00;99.90
16511;DHT22;8368;48.772;8.754;2023-04-16T01:20:45;6.10;99.90
16511;DHT22;8368;48.772;8.754;2023-04-16T01:23:11;6.10;99.90
16511;DHT22;8368;48.772;8.754;2023-04-16T01:25:37;6.00;99.90
16511;DHT22;8368;48.772;8.754;2023-04-16T01:28:03;6.00;99.90
16511;DHT22;8368;48.772;8.754;2023-04-16T01:30:29;6.00;99.90
16511;DHT22;8368;48.772;8.754;2023-04-16T01:32:54;6.00;99.90
16511;DHT22;8368;48.772;8.754;2023-04-16T01:35:20;6.00;99.90
16511;DHT22;8368;48.772;8.754;2023-04-16T01:37:46;6.00;99.90
16511;DHT22;8368;48.772;8.754;2023-04-16T01:40:11;6.00;99.90
16511;DHT22;8368;48.772;8.754;2023-04-16T01:42:37;6.00;99.90
16511;DHT22;8368;48.772;8.754;2023-04-16T01:45:04;6.00;99.90
16511;DHT22;8368;48.772;8.754;2023-04-16T01:47:29;6.00;99.90
16511;DHT22;8368;48.772;8.754;2023-04-16T01:49:55;6.00;99.90
16511;DHT22;8368;48.772;8.754;2023-04-16T01:52:21;6.00;99.90
16511;DHT22;8368;48.772;8.754;2023-04-16T01:54:46;6.00;99.90
16511;DHT22;8368;48.772;8.754;2023-04-16T01:57:12;6.00;99.90
16511;DHT22;8368;48.772;8.754;2023-04-16T01:59:37;6.00;99.90
16511;DHT22;8368;48.772;8.754;2023-04-16T02:02:07;6.00;99.90
16511;DHT22;8368;48.772;8.754;2023-04-16T02:04:38;6.00;99.90
16511;DHT22;8368;48.772;8.754;2023-04-16T02:07:04;6.00;99.90
16511;DHT22;8368;48.772;8.754;2023-04-16T02:09:30;6.10;99.90
16511;DHT22;8368;48.772;8.754;2023-04-16T02:11:58;6.00;99.90
16511;DHT22;8368;48.772;8.754;2023-04-16T02:14:23;6.00;99.90
16511;DHT22;8368;48.772;8.754;2023-04-16T02:16:50;6.00;99.90
16511;DHT22;8368;48.772;8.754;2023-04-16T02:19:16;6.00;99.90
16511;DHT22;8368;48.772;8.754;2023-04-16T02:21:42;6.00;99.90
16511;DHT22;8368;48.772;8.754;2023-04-16T02:24:07;6.00;99.90
16511;DHT22;8368;48.772;8.754;2023-04-16T02:26:33;6.00;99.90
16511;DHT22;8368;48.772;8.754;2023-04-16T02:28:58;6.10;99.90
16511;DHT22;8368;48.772;8.754;2023-04-16T02:31:24;6.00;99.90
16511;DHT22;8368;48.772;8.754;2023-04-16T02:33:49;6.10;99.90
16511;DHT22;8368;48.772;8.754;2023-04-16T02:36:15;6.00;99.90
16511;DHT22;8368;48.772;8.754;2023-04-16T02:38:40;6.00;99.90
16511;DHT22;8368;48.772;8.754;2023-04-16T02:41:06;6.00;99.90
16511;DHT22;8368;48.772;8.754;2023-04-16T02:43:31;6.00;99.90
16511;DHT22;8368;48.772;8.754;2023-04-16T02:45:57;6.00;99.90
16511;DHT22;8368;48.772;8.754;2023-04-16T02:48:23;6.00;99.90
16511;DHT22;8368;48.772;8.754;2023-04-16T02:50:49;6.00;99.90
16511;DHT22;8368;48.772;8.754;2023-04-16T02:53:15;6.00;99.90
16511;DHT22;8368;48.772;8.754;2023-04-16T02:55:40;6.00;99.90
16511;DHT22;8368;48.772;8.754;2023-04-16T02:58:06;6.00;99.90
16511;DHT22;8368;48.772;8.754;2023-04-16T03:00:31;6.00;99.90
16511;DHT22;8368;48.772;8.754;2023-04-16T03:02:57;6.00;99.90
16511;DHT22;8368;48.772;8.754;2023-04-16T03:05:22;5.90;99.90
16511;DHT22;8368;48.772;8.754;2023-04-16T03:07:48;5.90;99.90
16511;DHT22;8368;48.772;8.754;2023-04-16T03:10:15;5.90;99.90
16511;DHT22;8368;48.772;8.754;2023-04-16T03:12:41;5.90;99.90
16511;DHT22;8368;48.772;8.754;2023-04-16T03:15:06;5.90;99.90
16511;DHT22;8368;48.772;8.754;2023-04-16T03:17:32;6.00;99.90
16511;DHT22;8368;48.772;8.754;2023-04-16T03:19:58;5.90;99.90
16511;DHT22;8368;48.772;8.754;2023-04-16T03:22:23;6.00;99.90
16511;DHT22;8368;48.772;8.754;2023-04-16T03:24:49;6.00;99.90
16511;DHT22;8368;48.772;8.754;2023-04-16T03:27:14;6.00;99.90
16511;DHT22;8368;48.772;8.754;2023-04-16T03:29:40;6.00;99.90
16511;DHT22;8368;48.772;8.754;2023-04-16T03:32:06;6.00;99.90
16511;DHT22;8368;48.772;8.754;2023-04-16T03:34:31;6.00;99.90
16511;DHT22;8368;48.772;8.754;2023-04-16T03:36:57;6.00;99.90
16511;DHT22;8368;48.772;8.754;2023-04-16T03:39:23;6.00;99.90
16511;DHT22;8368;48.772;8.754;2023-04-16T03:41:48;6.10;99.90
16511;DHT22;8368;48.772;8.754;2023-04-16T03:44:14;6.00;99.90
16511;DHT22;8368;48.772;8.754;2023-04-16T03:46:39;6.00;99.90
16511;DHT22;8368;48.772;8.754;2023-04-16T03:49:05;6.00;99.90
16511;DHT22;8368;48.772;8.754;2023-04-16T03:51:30;6.00;99.90
16511;DHT22;8368;48.772;8.754;2023-04-16T03:53:56;6.00;99.90
16511;DHT22;8368;48.772;8.754;2023-04-16T03:56:22;6.00;99.90
16511;DHT22;8368;48.772;8.754;2023-04-16T03:58:47;6.00;99.90
16511;DHT22;8368;48.772;8.754;2023-04-16T04:01:13;6.00;99.90
16511;DHT22;8368;48.772;8.754;2023-04-16T04:03:38;6.00;99.90
16511;DHT22;8368;48.772;8.754;2023-04-16T04:06:07;6.00;99.90
16511;DHT22;8368;48.772;8.754;2023-04-16T04:08:33;6.00;99.90
16511;DHT22;8368;48.772;8.754;2023-04-16T04:10:58;6.00;99.90
16511;DHT22;8368;48.772;8.754;2023-04-16T04:13:24;6.00;99.90
16511;DHT22;8368;48.772;8.754;2023-04-16T04:15:50;6.00;99.90
16511;DHT22;8368;48.772;8.754;2023-04-16T04:18:16;6.00;99.90
16511;DHT22;8368;48.772;8.754;2023-04-16T04:20:43;6.00;99.90
16511;DHT22;8368;48.772;8.754;2023-04-16T04:23:08;6.00;99.90
16511;DHT22;8368;48.772;8.754;2023-04-16T04:25:34;6.00;99.90
16511;DHT22;8368;48.772;8.754;2023-04-16T04:27:59;6.00;99.90
16511;DHT22;8368;48.772;8.754;2023-04-16T04:30:25;6.00;99.90
16511;DHT22;8368;48.772;8.754;2023-04-16T04:32:50;6.00;99.90
16511;DHT22;8368;48.772;8.754;2023-04-16T04:35:16;6.00;99.90
16511;DHT22;8368;48.772;8.754;2023-04-16T04:37:42;6.00;99.90
16511;DHT22;8368;48.772;8.754;2023-04-16T04:40:08;6.00;99.90
16511;DHT22;8368;48.772;8.754;2023-04-16T04:42:33;6.00;99.90
16511;DHT22;8368;48.772;8.754;2023-04-16T04:44:59;6.00;99.90
16511;DHT22;8368;48.772;8.754;2023-04-16T04:47:25;6.00;99.90
16511;DHT22;8368;48.772;8.754;2023-04-16T04:49:50;6.00;99.90
16511;DHT22;8368;48.772;8.754;2023-04-16T04:52:16;6.00;99.90
16511;DHT22;8368;48.772;8.754;2023-04-16T04:54:41;6.00;99.90
16511;DHT22;8368;48.772;8.754;2023-04-16T04:57:07;6.00;99.90
16511;DHT22;8368;48.772;8.754;2023-04-16T04:59:33;6.00;99.90
16511;DHT22;8368;48.772;8.754;2023-04-16T05:01:58;5.90;99.90
16511;DHT22;8368;48.772;8.754;2023-04-16T05:04:24;6.00;99.90
16511;DHT22;8368;48.772;8.754;2023-04-16T05:06:50;5.90;99.90
16511;DHT22;8368;48.772;8.754;2023-04-16T05:09:15;5.90;99.90
16511;DHT22;8368;48.772;8.754;2023-04-16T05:11:41;5.90;99.90
16511;DHT22;8368;48.772;8.754;2023-04-16T05:14:07;5.90;99.90
16511;DHT22;8368;48.772;8.754;2023-04-16T05:16:36;5.80;99.90
16511;DHT22;8368;48.772;8.754;2023-04-16T05:19:02;5.80;99.90
16511;DHT22;8368;48.772;8.754;2023-04-16T05:21:28;5.80;99.90
16511;DHT22;8368;48.772;8.754;2023-04-16T05:23:54;5.80;99.90
16511;DHT22;8368;48.772;8.754;2023-04-16T05:26:19;5.80;99.90
16511;DHT22;8368;48.772;8.754;2023-04-16T05:28:45;5.90;99.90
16511;DHT22;8368;48.772;8.754;2023-04-16T05:31:11;5.90;99.90
16511;DHT22;8368;48.772;8.754;2023-04-16T05:33:36;5.80;99.90
16511;DHT22;8368;48.772;8.754;2023-04-16T05:36:02;5.80;99.90
16511;DHT22;8368;48.772;8.754;2023-04-16T05:38:27;5.80;99.90
16511;DHT22;8368;48.772;8.754;2023-04-16T05:40:54;5.80;99.90
16511;DHT22;8368;48.772;8.754;2023-04-16T05:43:19;5.80;99.90
16511;DHT22;8368;48.772;8.754;2023-04-16T05:45:45;5.80;99.90
16511;DHT22;8368;48.772;8.754;2023-04-16T05:48:11;5.80;99.90
16511;DHT22;8368;48.772;8.754;2023-04-16T05:50:37;5.80;99.90
16511;DHT22;8368;48.772;8.754;2023-04-16T05:53:05;5.80;99.90
16511;DHT22;8368;48.772;8.754;2023-04-16T05:55:31;5.80;99.90
16511;DHT22;8368;48.772;8.754;2023-04-16T05:57:57;5.80;99.90
16511;DHT22;8368;48.772;8.754;2023-04-16T06:00:22;5.80;99.90
16511;DHT22;8368;48.772;8.754;2023-04-16T06:02:48;5.80;99.90
16511;DHT22;8368;48.772;8.754;2023-04-16T06:05:13;5.80;99.90
16511;DHT22;8368;48.772;8.754;2023-04-16T06:07:39;5.80;99.90
16511;DHT22;8368;48.772;8.754;2023-04-16T06:10:05;5.80;99.90
16511;DHT22;8368;48.772;8.754;2023-04-16T06:12:30;5.80;99.90
16511;DHT22;8368;48.772;8.754;2023-04-16T06:14:56;5.80;99.90
16511;DHT22;8368;48.772;8.754;2023-04-16T06:17:21;5.80;99.90
16511;DHT22;8368;48.772;8.754;2023-04-16T06:19:47;5.80;99.90
16511;DHT22;8368;48.772;8.754;2023-04-16T06:22:13;5.80;99.90
16511;DHT22;8368;48.772;8.754;2023-04-16T06:24:38;5.80;99.90
16511;DHT22;8368;48.772;8.754;2023-04-16T06:27:04;5.70;99.90
16511;DHT22;8368;48.772;8.754;2023-04-16T06:29:29;5.70;99.90
16511;DHT22;8368;48.772;8.754;2023-04-16T06:31:55;5.80;99.90
16511;DHT22;8368;48.772;8.754;2023-04-16T06:34:21;5.70;99.90
16511;DHT22;8368;48.772;8.754;2023-04-16T06:36:46;5.70;99.90
16511;DHT22;8368;48.772;8.754;2023-04-16T06:39:12;5.70;99.90
16511;DHT22;8368;48.772;8.754;2023-04-16T06:41:37;5.80;99.90
16511;DHT22;8368;48.772;8.754;2023-04-16T06:44:03;5.70;99.90
16511;DHT22;8368;48.772;8.754;2023-04-16T06:46:28;5.70;99.90
16511;DHT22;8368;48.772;8.754;2023-04-16T06:48:54;5.80;99.90
16511;DHT22;8368;48.772;8.754;2023-04-16T06:51:19;5.70;99.90
16511;DHT22;8368;48.772;8.754;2023-04-16T06:53:45;5.70;99.90
16511;DHT22;8368;48.772;8.754;2023-04-16T06:56:11;5.70;99.90
16511;DHT22;8368;48.772;8.754;2023-04-16T06:58:36;5.70;99.90
16511;DHT22;8368;48.772;8.754;2023-04-16T07:01:02;5.70;99.90
16511;DHT22;8368;48.772;8.754;2023-04-16T07:03:27;5.70;99.90
16511;DHT22;8368;48.772;8.754;2023-04-16T07:05:53;5.80;99.90
16511;DHT22;8368;48.772;8.754;2023-04-16T07:08:18;5.80;99.90
16511;DHT22;8368;48.772;8.754;2023-04-16T07:10:44;5.80;99.90
16511;DHT22;8368;48.772;8.754;2023-04-16T07:13:10;5.80;99.90
16511;DHT22;8368;48.772;8.754;2023-04-16T07:15:35;5.80;99.90
16511;DHT22;8368;48.772;8.754;2023-04-16T07:18:01;5.80;99.90
16511;DHT22;8368;48.772;8.754;2023-04-16T07:20:26;5.80;99.90
16511;DHT22;8368;48.772;8.754;2023-04-16T07:22:52;5.90;99.90
16511;DHT22;8368;48.772;8.754;2023-04-16T07:25:18;5.90;99.90
16511;DHT22;8368;48.772;8.754;2023-04-16T07:27:43;5.90;99.90
16511;DHT22;8368;48.772;8.754;2023-04-16T07:30:09;5.90;99.90
16511;DHT22;8368;48.772;8.754;2023-04-16T07:32:35;5.90;99.90
16511;DHT22;8368;48.772;8.754;2023-04-16T07:35:00;5.90;99.90
16511;DHT22;8368;48.772;8.754;2023-04-16T07:37:26;5.90;99.90
16511;DHT22;8368;48.772;8.754;2023-04-16T07:39:51;5.90;99.90
16511;DHT22;8368;48.772;8.754;2023-04-16T07:42:17;5.90;99.90
16511;DHT22;8368;48.772;8.754;2023-04-16T07:44:43;5.90;99.90
16511;DHT22;8368;48.772;8.754;2023-04-16T07:47:08;5.90;99.90
16511;DHT22;8368;48.772;8.754;2023-04-16T07:49:34;5.90;99.90
16511;DHT22;8368;48.772;8.754;2023-04-16T07:51:59;5.90;99.90
16511;DHT22;8368;48.772;8.754;2023-04-16T07:54:25;5.90;99.90
16511;DHT22;8368;48.772;8.754;2023-04-16T07:56:51;5.90;99.90
16511;DHT22;8368;48.772;8.754;2023-04-16T07:59:16;5.90;99.90
16511;DHT22;8368;48.772;8.754;2023-04-16T08:01:42;6.00;99.90
16511;DHT22;8368;48.772;8.754;2023-04-16T08:04:07;6.00;99.90
16511;DHT22;8368;48.772;8.754;2023-04-16T08:06:33;6.00;99.90
16511;DHT22;8368;48.772;8.754;2023-04-16T08:08:58;6.00;99.90
16511;DHT22;8368;48.772;8.754;2023-04-16T08:11:24;6.00;99.90
16511;DHT22;8368;48.772;8.754;2023-04-16T08:13:49;6.00;99.90
16511;DHT22;8368;48.772;8.754;2023-04-16T08:16:15;6.00;99.90
16511;DHT22;8368;48.772;8.754;2023-04-16T08:18:40;6.00;99.90
16511;DHT22;8368;48.772;8.754;2023-04-16T08:21:06;6.00;99.90
16511;DHT22;8368;48.772;8.754;2023-04-16T08:23:31;6.10;99.90
16511;DHT22;8368;48.772;8.754;2023-04-16T08:25:57;6.10;99.90
16511;DHT22;8368;48.772;8.754;2023-04-16T08:28:23;6.10;99.90
16511;DHT22;8368;48.772;8.754;2023-04-16T08:30:48;6.10;99.90
16511;DHT22;8368;48.772;8.754;2023-04-16T08:33:14;6.20;99.90
16511;DHT22;8368;48.772;8.754;2023-04-16T08:35:39;6.20;99.90
16511;DHT22;8368;48.772;8.754;2023-04-16T08:38:05;6.20;99.90
16511;DHT22;8368;48.772;8.754;2023-04-16T08:40:34;6.20;99.90
16511;DHT22;8368;48.772;8.754;2023-04-16T08:43:04;6.30;99.90
16511;DHT22;8368;48.772;8.754;2023-04-16T08:45:34;6.30;99.90
16511;DHT22;8368;48.772;8.754;2023-04-16T08:48:00;6.30;99.90
16511;DHT22;8368;48.772;8.754;2023-04-16T08:50:29;6.40;99.90
16511;DHT22;8368;48.772;8.754;2023-04-16T08:52:58;6.50;99.90
16511;DHT22;8368;48.772;8.754;2023-04-16T08:55:47;6.50;99.90
16511;DHT22;8368;48.772;8.754;2023-04-16T08:58:18;6.50;99.90
16511;DHT22;8368;48.772;8.754;2023-04-16T09:00:43;6.50;99.90
16511;DHT22;8368;48.772;8.754;2023-04-16T09:03:11;6.50;99.90
16511;DHT22;8368;48.772;8.754;2023-04-16T09:05:37;6.50;99.90
16511;DHT22;8368;48.772;8.754;2023-04-16T09:08:06;6.50;99.90
16511;DHT22;8368;48.772;8.754;2023-04-16T09:10:32;6.50;99.90
16511;DHT22;8368;48.772;8.754;2023-04-16T09:12:58;6.50;99.90
16511;DHT22;8368;48.772;8.754;2023-04-16T09:15:24;6.50;99.90
16511;DHT22;8368;48.772;8.754;2023-04-16T09:17:50;6.50;99.90
16511;DHT22;8368;48.772;8.754;2023-04-16T09:20:16;6.50;99.90
16511;DHT22;8368;48.772;8.754;2023-04-16T09:22:42;6.50;99.90
16511;DHT22;8368;48.772;8.754;2023-04-16T09:25:08;6.50;99.90
16511;DHT22;8368;48.772;8.754;2023-04-16T09:27:35;6.40;99.90
16511;DHT22;8368;48.772;8.754;2023-04-16T09:30:20;6.50;99.90
16511;DHT22;8368;48.772;8.754;2023-04-16T09:32:47;6.40;99.90
16511;DHT22;8368;48.772;8.754;2023-04-16T09:35:13;6.50;99.90
16511;DHT22;8368;48.772;8.754;2023-04-16T09:37:39;6.40;99.90
16511;DHT22;8368;48.772;8.754;2023-04-16T09:40:05;6.50;99.90
16511;DHT22;8368;48.772;8.754;2023-04-16T09:42:34;6.50;99.90
16511;DHT22;8368;48.772;8.754;2023-04-16T09:45:01;6.40;99.90
16511;DHT22;8368;48.772;8.754;2023-04-16T09:47:41;6.50;99.90
16511;DHT22;8368;48.772;8.754;2023-04-16T09:50:07;6.50;99.90
16511;DHT22;8368;48.772;8.754;2023-04-16T09:52:36;6.40;99.90
16511;DHT22;8368;48.772;8.754;2023-04-16T09:55:03;6.40;99.90
16511;DHT22;8368;48.772;8.754;2023-04-16T09:57:29;6.50;99.90
16511;DHT22;8368;48.772;8.754;2023-04-16T10:00:00;6.50;99.90
16511;DHT22;8368;48.772;8.754;2023-04-16T10:02:27;6.50;99.90
16511;DHT22;8368;48.772;8.754;2023-04-16T10:04:53;6.50;99.90
16511;DHT22;8368;48.772;8.754;2023-04-16T10:07:20;6.60;99.90
16511;DHT22;8368;48.772;8.754;2023-04-16T10:09:46;6.50;99.90
16511;DHT22;8368;48.772;8.754;2023-04-16T10:12:16;6.60;99.90
16511;DHT22;8368;48.772;8.754;2023-04-16T10:14:42;6.60;99.90
16511;DHT22;8368;48.772;8.754;2023-04-16T10:17:08;6.60;99.90
16511;DHT22;8368;48.772;8.754;2023-04-16T10:19:34;6.60;99.90
16511;DHT22;8368;48.772;8.754;2023-04-16T10:22:01;6.60;99.90
16511;DHT22;8368;48.772;8.754;2023-04-16T10:24:28;6.70;99.90
16511;DHT22;8368;48.772;8.754;2023-04-16T10:26:54;6.70;99.90
16511;DHT22;8368;48.772;8.754;2023-04-16T10:29:20;6.70;99.90
16511;DHT22;8368;48.772;8.754;2023-04-16T10:31:47;6.70;99.90
16511;DHT22;8368;48.772;8.754;2023-04-16T10:34:14;6.70;99.90
16511;DHT22;8368;48.772;8.754;2023-04-16T10:36:40;6.70;99.90
16511;DHT22;8368;48.772;8.754;2023-04-16T10:39:10;6.70;99.90
16511;DHT22;8368;48.772;8.754;2023-04-16T10:41:37;6.70;99.90
16511;DHT22;8368;48.772;8.754;2023-04-16T10:44:05;6.70;99.90
16511;DHT22;8368;48.772;8.754;2023-04-16T10:46:36;6.70;99.90
16511;DHT22;8368;48.772;8.754;2023-04-16T10:49:23;6.70;99.90
16511;DHT22;8368;48.772;8.754;2023-04-16T10:51:58;6.80;99.90
16511;DHT22;8368;48.772;8.754;2023-04-16T10:54:26;6.90;99.90
16511;DHT22;8368;48.772;8.754;2023-04-16T10:56:52;6.90;99.90
16511;DHT22;8368;48.772;8.754;2023-04-16T10:59:20;6.80;99.90
16511;DHT22;8368;48.772;8.754;2023-04-16T11:01:47;6.70;99.90
16511;DHT22;8368;48.772;8.754;2023-04-16T11:12:15;6.80;99.90
16511;DHT22;8368;48.772;8.754;2023-04-16T11:14:41;6.80;99.90
16511;DHT22;8368;48.772;8.754;2023-04-16T11:17:07;6.80;99.90
16511;DHT22;8368;48.772;8.754;2023-04-16T11:19:36;6.80;99.90
16511;DHT22;8368;48.772;8.754;2023-04-16T11:22:03;6.80;99.90
16511;DHT22;8368;48.772;8.754;2023-04-16T11:24:30;6.80;99.90
16511;DHT22;8368;48.772;8.754;2023-04-16T11:26:55;6.70;99.90
16511;DHT22;8368;48.772;8.754;2023-04-16T11:29:21;6.80;99.90
16511;DHT22;8368;48.772;8.754;2023-04-16T11:31:50;6.80;99.90
16511;DHT22;8368;48.772;8.754;2023-04-16T11:34:17;6.80;99.90
16511;DHT22;8368;48.772;8.754;2023-04-16T11:36:43;7.00;99.90
16511;DHT22;8368;48.772;8.754;2023-04-16T11:39:09;7.00;99.90
16511;DHT22;8368;48.772;8.754;2023-04-16T11:41:41;7.10;99.90
16511;DHT22;8368;48.772;8.754;2023-04-16T11:46:43;7.10;99.90
16511;DHT22;8368;48.772;8.754;2023-04-16T11:49:08;7.20;99.90
16511;DHT22;8368;48.772;8.754;2023-04-16T11:51:45;7.20;99.90
16511;DHT22;8368;48.772;8.754;2023-04-16T11:54:18;7.30;99.90
16511;DHT22;8368;48.772;8.754;2023-04-16T11:56:45;7.30;99.90
16511;DHT22;8368;48.772;8.754;2023-04-16T11:59:16;7.30;99.90
16511;DHT22;8368;48.772;8.754;2023-04-16T12:01:50;7.20;99.90
16511;DHT22;8368;48.772;8.754;2023-04-16T12:04:18;7.20;99.90
16511;DHT22;8368;48.772;8.754;2023-04-16T12:09:31;7.20;99.90
16511;DHT22;8368;48.772;8.754;2023-04-16T12:11:57;7.30;99.90
16511;DHT22;8368;48.772;8.754;2023-04-16T12:14:22;7.40;99.90
16511;DHT22;8368;48.772;8.754;2023-04-16T12:16:48;7.50;99.90
16511;DHT22;8368;48.772;8.754;2023-04-16T12:19:14;7.40;99.90
16511;DHT22;8368;48.772;8.754;2023-04-16T12:21:44;7.40;99.90
16511;DHT22;8368;48.772;8.754;2023-04-16T12:24:11;7.40;99.90
16511;DHT22;8368;48.772;8.754;2023-04-16T12:26:44;7.40;99.90
16511;DHT22;8368;48.772;8.754;2023-04-16T12:29:24;7.30;99.90
16511;DHT22;8368;48.772;8.754;2023-04-16T12:31:50;7.30;99.90
16511;DHT22;8368;48.772;8.754;2023-04-16T12:34:17;7.30;99.90
16511;DHT22;8368;48.772;8.754;2023-04-16T12:36:44;7.20;99.90
16511;DHT22;8368;48.772;8.754;2023-04-16T12:39:11;7.30;99.90
16511;DHT22;8368;48.772;8.754;2023-04-16T12:41:37;7.30;99.90
16511;DHT22;8368;48.772;8.754;2023-04-16T12:44:16;7.40;99.90
16511;DHT22;8368;48.772;8.754;2023-04-16T12:46:43;7.30;99.90
16511;DHT22;8368;48.772;8.754;2023-04-16T12:49:10;7.20;99.90
16511;DHT22;8368;48.772;8.754;2023-04-16T12:51:36;7.10;99.90
16511;DHT22;8368;48.772;8.754;2023-04-16T12:54:04;7.20;99.90
16511;DHT22;8368;48.772;8.754;2023-04-16T12:56:30;7.20;99.90
16511;DHT22;8368;48.772;8.754;2023-04-16T12:58:56;7.20;99.90
16511;DHT22;8368;48.772;8.754;2023-04-16T13:01:22;7.20;99.90
16511;DHT22;8368;48.772;8.754;2023-04-16T13:03:48;7.20;99.90
16511;DHT22;8368;48.772;8.754;2023-04-16T13:06:14;7.20;99.90
16511;DHT22;8368;48.772;8.754;2023-04-16T13:08:41;7.30;99.90
16511;DHT22;8368;48.772;8.754;2023-04-16T13:11:07;7.30;99.90
16511;DHT22;8368;48.772;8.754;2023-04-16T13:13:33;7.30;99.90
16511;DHT22;8368;48.772;8.754;2023-04-16T13:15:58;7.40;99.90
16511;DHT22;8368;48.772;8.754;2023-04-16T13:18:27;7.40;99.90
16511;DHT22;8368;48.772;8.754;2023-04-16T13:20:53;7.40;99.90
16511;DHT22;8368;48.772;8.754;2023-04-16T13:23:18;7.30;99.90
16511;DHT22;8368;48.772;8.754;2023-04-16T13:25:44;7.30;99.90
16511;DHT22;8368;48.772;8.754;2023-04-16T13:28:09;7.30;99.90
16511;DHT22;8368;48.772;8.754;2023-04-16T13:30:35;7.30;99.90
16511;DHT22;8368;48.772;8.754;2023-04-16T13:33:01;7.20;99.90
16511;DHT22;8368;48.772;8.754;2023-04-16T13:35:27;7.20;99.90
16511;DHT22;8368;48.772;8.754;2023-04-16T13:37:53;7.30;99.90
16511;DHT22;8368;48.772;8.754;2023-04-16T13:40:19;7.30;99.90
16511;DHT22;8368;48.772;8.754;2023-04-16T13:42:44;7.30;99.90
16511;DHT22;8368;48.772;8.754;2023-04-16T13:45:10;7.30;99.90
16511;DHT22;8368;48.772;8.754;2023-04-16T13:47:39;7.30;99.90
16511;DHT22;8368;48.772;8.754;2023-04-16T13:50:07;7.20;99.90
16511;DHT22;8368;48.772;8.754;2023-04-16T13:52:32;7.20;99.90
16511;DHT22;8368;48.772;8.754;2023-04-16T13:54:58;7.10;99.90
16511;DHT22;8368;48.772;8.754;2023-04-16T13:57:24;7.20;99.90
16511;DHT22;8368;48.772;8.754;2023-04-16T13:59:50;7.10;99.90
16511;DHT22;8368;48.772;8.754;2023-04-16T14:02:16;7.20;99.90
16511;DHT22;8368;48.772;8.754;2023-04-16T14:04:41;7.20;99.90
16511;DHT22;8368;48.772;8.754;2023-04-16T14:07:07;7.20;99.90
16511;DHT22;8368;48.772;8.754;2023-04-16T14:09:32;7.20;99.90
16511;DHT22;8368;48.772;8.754;2023-04-16T14:11:58;7.20;99.90
16511;DHT22;8368;48.772;8.754;2023-04-16T14:14:23;7.20;99.90
16511;DHT22;8368;48.772;8.754;2023-04-16T14:16:50;7.20;99.90
16511;DHT22;8368;48.772;8.754;2023-04-16T14:19:15;7.20;99.90
16511;DHT22;8368;48.772;8.754;2023-04-16T14:21:41;7.20;99.90
16511;DHT22;8368;48.772;8.754;2023-04-16T14:24:07;7.20;99.90
16511;DHT22;8368;48.772;8.754;2023-04-16T14:26:33;7.20;99.90
16511;DHT22;8368;48.772;8.754;2023-04-16T14:28:59;7.20;99.90
16511;DHT22;8368;48.772;8.754;2023-04-16T14:31:25;7.20;99.90
16511;DHT22;8368;48.772;8.754;2023-04-16T14:33:51;7.20;99.90
16511;DHT22;8368;48.772;8.754;2023-04-16T14:36:17;7.30;99.90
16511;DHT22;8368;48.772;8.754;2023-04-16T14:38:42;7.30;99.90
16511;DHT22;8368;48.772;8.754;2023-04-16T14:41:08;7.30;99.90
16511;DHT22;8368;48.772;8.754;2023-04-16T14:43:33;7.20;99.90
16511;DHT22;8368;48.772;8.754;2023-04-16T14:46:00;7.20;99.90
16511;DHT22;8368;48.772;8.754;2023-04-16T14:48:26;7.20;99.90
16511;DHT22;8368;48.772;8.754;2023-04-16T14:50:52;7.20;99.90
16511;DHT22;8368;48.772;8.754;2023-04-16T14:53:18;7.20;99.90
16511;DHT22;8368;48.772;8.754;2023-04-16T14:55:43;7.20;99.90
16511;DHT22;8368;48.772;8.754;2023-04-16T14:58:09;7.20;99.90
16511;DHT22;8368;48.772;8.754;2023-04-16T15:00:35;7.20;99.90
16511;DHT22;8368;48.772;8.754;2023-04-16T15:03:00;7.20;99.90
16511;DHT22;8368;48.772;8.754;2023-04-16T15:05:26;7.30;99.90
16511;DHT22;8368;48.772;8.754;2023-04-16T15:07:51;7.30;99.90
16511;DHT22;8368;48.772;8.754;2023-04-16T15:10:17;7.20;99.90
16511;DHT22;8368;48.772;8.754;2023-04-16T15:12:43;7.30;99.90
16511;DHT22;8368;48.772;8.754;2023-04-16T15:15:08;7.30;99.90
16511;DHT22;8368;48.772;8.754;2023-04-16T15:17:34;7.30;99.90
16511;DHT22;8368;48.772;8.754;2023-04-16T15:20:00;7.30;99.90
16511;DHT22;8368;48.772;8.754;2023-04-16T15:22:26;7.30;99.90
16511;DHT22;8368;48.772;8.754;2023-04-16T15:24:51;7.20;99.90
16511;DHT22;8368;48.772;8.754;2023-04-16T15:27:18;7.20;99.90
16511;DHT22;8368;48.772;8.754;2023-04-16T15:29:43;7.20;99.90
16511;DHT22;8368;48.772;8.754;2023-04-16T15:32:11;7.20;99.90
16511;DHT22;8368;48.772;8.754;2023-04-16T15:34:36;7.20;99.90
16511;DHT22;8368;48.772;8.754;2023-04-16T15:37:02;7.20;99.90
16511;DHT22;8368;48.772;8.754;2023-04-16T15:39:27;7.20;99.90
16511;DHT22;8368;48.772;8.754;2023-04-16T15:41:53;7.10;99.90
16511;DHT22;8368;48.772;8.754;2023-04-16T15:44:18;7.10;99.90
16511;DHT22;8368;48.772;8.754;2023-04-16T15:46:44;7.10;99.90
16511;DHT22;8368;48.772;8.754;2023-04-16T15:49:10;7.10;99.90
16511;DHT22;8368;48.772;8.754;2023-04-16T15:51:35;7.20;99.90
16511;DHT22;8368;48.772;8.754;2023-04-16T15:54:01;7.20;99.90
16511;DHT22;8368;48.772;8.754;2023-04-16T15:56:27;7.10;99.90
16511;DHT22;8368;48.772;8.754;2023-04-16T15:58:53;7.20;99.90
16511;DHT22;8368;48.772;8.754;2023-04-16T16:01:18;7.20;99.90
16511;DHT22;8368;48.772;8.754;2023-04-16T16:03:44;7.20;99.90
16511;DHT22;8368;48.772;8.754;2023-04-16T16:06:10;7.20;99.90
16511;DHT22;8368;48.772;8.754;2023-04-16T16:08:36;7.10;99.90